createdAt,value
2018-12-04T00:00:56.348Z,98805.09
2018-12-04T00:03:24.972Z,98809.00
2018-12-04T00:05:53.341Z,98812.48
2018-12-04T00:08:21.765Z,98812.05
2018-12-04T00:10:50.335Z,98811.63
2018-12-04T00:13:18.819Z,98810.32
2018-12-04T00:15:47.193Z,98809.02
2018-12-04T00:18:15.597Z,98818.58
2018-12-04T00:20:43.965Z,98812.94
2018-12-04T00:23:12.380Z,98817.30
2018-12-04T00:25:40.925Z,98802.92
2018-12-04T00:28:09.294Z,98815.98
2018-12-04T00:30:37.681Z,98814.24
2018-12-04T00:33:06.086Z,98818.17
2018-12-04T00:35:34.949Z,98822.08
2018-12-04T00:38:03.409Z,98814.67
2018-12-04T00:40:32.228Z,98814.67
2018-12-04T00:43:00.633Z,98807.72
2018-12-04T00:45:29.005Z,98809.45
2018-12-04T00:47:57.516Z,98812.04
2018-12-04T00:50:25.937Z,98816.38
2018-12-04T00:52:54.317Z,98809.44
2018-12-04T00:55:22.820Z,98809.42
2018-12-04T00:57:51.208Z,98805.50
2018-12-04T01:00:19.608Z,98802.45
2018-12-04T01:02:48.052Z,98803.75
2018-12-04T01:05:16.472Z,98807.65
2018-12-04T01:07:44.870Z,98810.69
2018-12-04T01:10:13.277Z,98808.06
2018-12-04T01:12:42.025Z,98810.66
2018-12-04T01:15:10.517Z,98811.10
2018-12-04T01:17:38.951Z,98806.31
2018-12-04T01:20:07.619Z,98810.67
2018-12-04T01:22:35.980Z,98813.27
2018-12-04T01:25:04.756Z,98811.52
2018-12-04T01:27:33.448Z,98807.18
2018-12-04T01:30:01.843Z,98811.53
2018-12-04T01:32:30.233Z,98808.06
2018-12-04T01:34:58.597Z,98806.33
2018-12-04T01:37:26.984Z,98811.98
2018-12-04T01:39:55.370Z,98814.59
2018-12-04T01:42:23.743Z,98812.42
2018-12-04T01:44:52.153Z,98811.12
2018-12-04T01:47:20.612Z,98808.08
2018-12-04T01:49:48.980Z,98805.91
2018-12-04T01:52:17.351Z,98802.44
2018-12-04T01:54:45.753Z,98805.47
2018-12-04T01:57:14.256Z,98811.56
2018-12-04T01:59:42.652Z,98808.06
2018-12-04T02:02:11.076Z,98804.14
2018-12-04T02:04:39.463Z,98808.50
2018-12-04T02:07:07.824Z,98802.84
2018-12-04T02:09:36.341Z,98795.88
2018-12-04T02:12:04.726Z,98795.45
2018-12-04T02:14:33.297Z,98795.87
2018-12-04T02:17:01.729Z,98796.30
2018-12-04T02:19:30.108Z,98792.81
2018-12-04T02:22:04.884Z,98794.99
2018-12-04T02:24:33.293Z,98795.85
2018-12-04T02:27:01.710Z,98797.16
2018-12-04T02:29:30.228Z,98798.89
2018-12-04T02:31:58.625Z,98805.42
2018-12-04T02:34:26.992Z,98802.38
2018-12-04T02:36:55.393Z,98805.43
2018-12-04T02:39:23.769Z,98807.18
2018-12-04T02:41:52.140Z,98799.36
2018-12-04T02:44:20.569Z,98802.42
2018-12-04T02:46:48.930Z,98797.21
2018-12-04T02:49:17.312Z,98805.47
2018-12-04T02:51:45.709Z,98804.18
2018-12-04T02:54:14.106Z,98800.27
2018-12-04T02:56:42.528Z,98809.42
2018-12-04T02:59:11.008Z,98811.59
2018-12-04T03:01:39.388Z,98810.73
2018-12-04T03:04:07.757Z,98783.22
2018-12-04T03:06:36.189Z,98818.13
2018-12-04T03:09:07.025Z,98819.87
2018-12-04T03:11:35.399Z,98828.58
2018-12-04T03:14:03.965Z,98823.81
2018-12-04T03:16:32.678Z,98828.61
2018-12-04T03:19:01.050Z,98829.48
2018-12-04T03:21:29.593Z,98828.17
2018-12-04T03:23:57.987Z,98818.61
2018-12-04T03:26:26.391Z,98826.86
2018-12-04T03:28:54.791Z,98827.28
2018-12-04T03:31:23.402Z,98831.59
2018-12-04T03:33:51.797Z,98833.33
2018-12-04T03:36:20.248Z,98836.80
2018-12-04T03:38:48.681Z,98832.88
2018-12-04T03:41:17.073Z,98839.40
2018-12-04T03:43:45.496Z,98835.92
2018-12-04T03:46:13.947Z,98836.34
2018-12-04T03:48:42.334Z,98827.66
2018-12-04T03:51:10.908Z,98831.98
2018-12-04T03:53:39.290Z,98833.70
2018-12-04T03:56:07.665Z,98844.97
2018-12-04T03:58:36.115Z,98840.58
2018-12-04T04:01:04.509Z,98849.22
2018-12-04T04:03:32.908Z,98844.38
2018-12-04T04:06:01.362Z,98849.53
2018-12-04T04:08:29.747Z,98846.00
2018-12-04T04:10:58.486Z,98844.22
2018-12-04T04:13:33.262Z,98846.35
2018-12-04T04:16:01.650Z,98840.68
2018-12-04T04:18:30.252Z,98840.19
2018-12-04T04:20:58.821Z,98840.13
2018-12-04T04:23:27.324Z,98835.32
2018-12-04T04:25:55.722Z,98834.82
2018-12-04T04:28:24.161Z,98841.28
2018-12-04T04:30:52.554Z,98836.89
2018-12-04T04:33:21.093Z,98848.98
2018-12-04T04:35:49.544Z,98840.26
2018-12-04T04:38:17.902Z,98846.32
2018-12-04T04:40:46.269Z,98846.34
2018-12-04T04:43:14.723Z,98842.42
2018-12-04T04:45:43.205Z,98848.50
2018-12-04T04:48:11.665Z,98847.64
2018-12-04T04:50:40.164Z,98852.84
2018-12-04T04:53:11.422Z,98822.28
2018-12-04T04:55:39.864Z,98850.66
2018-12-04T04:58:08.238Z,98851.05
2018-12-04T05:00:36.635Z,98848.38
2018-12-04T05:03:05.115Z,98855.26
2018-12-04T05:05:39.550Z,98860.38
2018-12-04T05:08:07.948Z,98857.30
2018-12-04T05:10:36.386Z,98859.85
2018-12-04T05:13:04.796Z,98854.18
2018-12-04T05:15:33.216Z,98851.11
2018-12-04T05:18:01.665Z,98858.88
2018-12-04T05:20:30.721Z,98871.84
2018-12-04T05:22:59.174Z,98863.98
2018-12-04T05:25:27.647Z,98866.09
2018-12-04T05:27:56.081Z,98868.20
2018-12-04T05:30:24.541Z,98870.34
2018-12-04T05:32:52.952Z,98871.19
2018-12-04T05:35:21.471Z,98875.94
2018-12-04T05:37:49.893Z,98880.25
2018-12-04T05:40:18.280Z,98876.72
2018-12-04T05:42:47.555Z,98884.02
2018-12-04T05:45:15.969Z,98887.87
2018-12-04T05:47:44.392Z,98879.60
2018-12-04T05:50:12.765Z,98881.75
2018-12-04T05:52:41.202Z,98882.16
2018-12-04T05:55:09.569Z,98886.91
2018-12-04T05:57:37.981Z,98877.38
2018-12-04T06:00:09.274Z,98881.25
2018-12-04T06:02:37.641Z,98879.05
2018-12-04T06:05:06.264Z,98872.48
2018-12-04T06:07:34.907Z,98879.39
2018-12-04T06:10:03.432Z,98871.58
2018-12-04T06:12:31.806Z,98878.02
2018-12-04T06:15:00.224Z,98875.71
2018-12-04T06:17:28.600Z,98882.16
2018-12-04T06:19:56.956Z,98883.01
2018-12-04T06:22:25.621Z,98884.28
2018-12-04T06:24:54.097Z,98887.25
2018-12-04T06:27:22.685Z,98883.75
2018-12-04T06:29:52.576Z,98883.73
2018-12-04T06:32:20.980Z,98884.60
2018-12-04T06:34:49.355Z,98888.95
2018-12-04T06:37:17.913Z,98888.90
2018-12-04T06:39:46.277Z,98889.75
2018-12-04T06:42:14.645Z,98888.02
2018-12-04T06:44:46.731Z,98890.59
2018-12-04T06:47:13.502Z,98890.54
2018-12-04T06:49:41.881Z,98885.27
2018-12-04T06:52:10.281Z,98887.81
2018-12-04T06:54:38.665Z,98889.92
2018-12-04T06:57:07.083Z,98895.52
2018-12-04T06:59:35.597Z,98898.94
2018-12-04T07:02:04.141Z,98898.52
2018-12-04T07:04:32.518Z,98907.19
2018-12-04T07:07:00.921Z,98897.65
2018-12-04T07:09:29.301Z,98913.25
2018-12-04T07:12:02.416Z,98904.67
2018-12-04T07:14:28.069Z,98908.25
2018-12-04T07:16:56.433Z,98786.78
2018-12-04T07:19:24.812Z,98906.27
2018-12-04T07:21:53.252Z,98910.70
2018-12-04T07:24:22.077Z,98914.23
2018-12-04T07:26:51.140Z,98922.09
2018-12-04T07:29:19.590Z,98925.60
2018-12-04T07:31:48.145Z,98932.58
2018-12-04T07:34:16.576Z,98933.92
2018-12-04T07:36:44.973Z,98939.16
2018-12-04T07:39:13.640Z,98939.60
2018-12-04T07:41:42.115Z,98929.20
2018-12-04T07:44:10.601Z,98935.70
2018-12-04T07:46:38.965Z,98940.91
2018-12-04T07:49:07.357Z,98938.73
2018-12-04T07:51:35.754Z,98934.83
2018-12-04T07:54:04.144Z,98940.05
2018-12-04T07:56:32.533Z,98934.91
2018-12-04T07:59:00.975Z,98935.36
2018-12-04T08:01:29.376Z,98940.16
2018-12-04T08:03:57.809Z,98928.88
2018-12-04T08:06:26.200Z,98931.96
2018-12-04T08:08:54.840Z,98933.71
2018-12-04T08:11:23.213Z,98925.03
2018-12-04T08:13:51.657Z,98926.78
2018-12-04T08:16:20.064Z,98939.39
2018-12-04T08:18:48.444Z,98929.84
2018-12-04T08:21:16.888Z,98933.31
2018-12-04T08:23:45.249Z,98930.73
2018-12-04T08:26:13.765Z,98941.61
2018-12-04T08:28:42.174Z,98947.71
2018-12-04T08:31:10.557Z,98946.86
2018-12-04T08:33:38.926Z,98942.54
2018-12-04T08:36:07.345Z,98939.53
2018-12-04T08:38:35.721Z,98943.49
2018-12-04T08:41:04.721Z,98940.50
2018-12-04T08:43:33.170Z,98940.52
2018-12-04T08:46:01.643Z,98939.24
2018-12-04T08:48:30.039Z,98934.48
2018-12-04T08:50:58.456Z,98938.41
2018-12-04T08:53:26.836Z,98944.94
2018-12-04T08:55:55.225Z,98946.69
2018-12-04T08:58:23.645Z,98949.32
2018-12-04T09:00:52.165Z,98948.47
2018-12-04T09:03:20.596Z,98960.22
2018-12-04T09:05:49.340Z,98955.00
2018-12-04T09:08:17.704Z,98953.25
2018-12-04T09:10:46.076Z,98953.25
2018-12-04T09:13:14.529Z,98954.14
2018-12-04T09:15:42.924Z,98951.54
2018-12-04T09:18:11.429Z,98951.61
2018-12-04T09:20:39.913Z,98953.84
2018-12-04T09:23:08.440Z,98952.13
2018-12-04T09:25:36.885Z,98956.08
2018-12-04T09:28:05.644Z,98959.58
2018-12-04T09:30:34.045Z,98956.58
2018-12-04T09:33:02.421Z,98950.97
2018-12-04T09:35:30.841Z,98952.72
2018-12-04T09:37:59.231Z,98959.27
2018-12-04T09:40:27.741Z,98956.22
2018-12-04T09:42:56.289Z,98929.13
2018-12-04T09:45:25.278Z,98926.56
2018-12-04T09:47:53.688Z,98948.95
2018-12-04T09:50:22.084Z,98950.27
2018-12-04T09:52:50.452Z,98950.25
2018-12-04T09:55:18.817Z,98949.42
2018-12-04T09:57:47.368Z,98958.16
2018-12-04T10:00:15.880Z,98959.45
2018-12-04T10:02:44.253Z,98948.21
2018-12-04T10:05:12.675Z,98952.11
2018-12-04T10:07:41.117Z,98953.86
2018-12-04T10:10:09.766Z,98959.07
2018-12-04T10:12:38.197Z,98959.95
2018-12-04T10:15:07.439Z,98952.61
2018-12-04T10:17:35.843Z,98956.55
2018-12-04T10:20:06.161Z,98956.62
2018-12-04T10:22:34.541Z,98963.61
2018-12-04T10:25:02.921Z,98955.36
2018-12-04T10:27:31.353Z,98960.12
2018-12-04T10:30:00.384Z,98961.46
2018-12-04T10:32:28.818Z,98959.75
2018-12-04T10:34:57.397Z,98957.13
2018-12-04T10:37:25.765Z,98962.42
2018-12-04T10:39:54.145Z,98958.53
2018-12-04T10:42:22.537Z,98961.97
2018-12-04T10:44:51.149Z,98959.30
2018-12-04T10:47:19.968Z,98964.83
2018-12-04T10:49:48.429Z,98960.41
2018-12-04T10:52:16.976Z,98966.41
2018-12-04T10:54:45.359Z,98971.57
2018-12-04T10:57:13.778Z,98972.40
2018-12-04T10:59:42.161Z,98971.05
2018-12-04T11:02:15.681Z,98970.63
2018-12-04T11:04:44.479Z,98975.83
2018-12-04T11:07:12.875Z,98966.25
2018-12-04T11:09:41.308Z,98970.13
2018-12-04T11:12:12.282Z,98975.34
2018-12-04T11:14:40.093Z,98977.06
2018-12-04T11:17:08.807Z,98977.94
2018-12-04T11:19:37.169Z,98957.41
2018-12-04T11:22:05.668Z,98981.87
2018-12-04T11:24:34.278Z,98983.14
2018-12-04T11:27:02.713Z,98982.17
2018-12-04T11:29:31.564Z,98985.08
2018-12-04T11:32:00.165Z,98985.48
2018-12-04T11:34:28.629Z,98982.27
2018-12-04T11:36:59.045Z,98981.77
2018-12-04T11:39:27.501Z,98981.26
2018-12-04T11:41:55.938Z,98979.91
2018-12-04T11:44:24.321Z,98972.84
2018-12-04T11:46:53.020Z,98971.97
2018-12-04T11:49:21.389Z,98976.69
2018-12-04T11:51:49.823Z,98972.29
2018-12-04T11:54:18.223Z,98974.86
2018-12-04T11:56:46.588Z,98979.64
2018-12-04T11:59:15.268Z,98978.31
2018-12-04T12:01:43.666Z,98982.11
2018-12-04T12:04:12.043Z,98979.91
2018-12-04T12:06:40.607Z,98991.60
2018-12-04T12:09:10.577Z,98957.51
2018-12-04T12:11:38.950Z,98991.62
2018-12-04T12:14:07.342Z,98984.63
2018-12-04T12:16:35.745Z,98982.45
2018-12-04T12:19:04.127Z,98989.83
2018-12-04T12:21:32.690Z,98987.65
2018-12-04T12:24:01.117Z,99005.81
2018-12-04T12:26:29.553Z,99009.27
2018-12-04T12:28:58.188Z,99007.09
2018-12-04T12:31:26.685Z,99007.48
2018-12-04T12:33:55.204Z,99013.98
2018-12-04T12:36:23.582Z,99011.55
2018-12-04T12:38:52.353Z,99014.27
2018-12-04T12:41:20.744Z,99014.23
2018-12-04T12:43:49.424Z,99010.56
2018-12-04T12:46:17.805Z,99006.89
2018-12-04T12:48:46.348Z,99014.52
2018-12-04T12:51:14.733Z,99014.82
2018-12-04T12:53:43.160Z,99019.92
2018-12-04T12:56:11.909Z,99020.68
2018-12-04T12:58:40.281Z,99017.63
2018-12-04T13:01:08.887Z,99010.73
2018-12-04T13:03:37.278Z,99016.36
2018-12-04T13:06:05.692Z,99020.23
2018-12-04T13:08:34.236Z,99016.30
2018-12-04T13:11:02.613Z,99019.77
2018-12-04T13:13:36.755Z,99015.03
2018-12-04T13:16:01.497Z,99011.20
2018-12-04T13:18:29.883Z,99016.84
2018-12-04T13:20:58.260Z,99023.82
2018-12-04T13:23:26.707Z,99031.62
2018-12-04T13:25:55.160Z,99030.77
2018-12-04T13:28:23.617Z,99019.56
2018-12-04T13:30:52.063Z,99020.41
2018-12-04T13:33:20.662Z,99020.35
2018-12-04T13:35:49.043Z,99027.63
2018-12-04T13:38:17.549Z,99033.19
2018-12-04T13:40:46.082Z,99033.55
2018-12-04T13:43:14.531Z,99036.50
2018-12-04T13:45:43.506Z,99036.92
2018-12-04T13:48:11.913Z,99039.04
2018-12-04T13:50:40.623Z,99040.34
2018-12-04T13:53:09.036Z,99040.77
2018-12-04T13:55:37.413Z,99042.03
2018-12-04T13:58:05.990Z,99043.72
2018-12-04T14:00:34.421Z,99043.63
2018-12-04T14:03:02.884Z,99047.52
2018-12-04T14:05:31.238Z,99051.38
2018-12-04T14:07:59.653Z,99056.47
2018-12-04T14:10:28.349Z,99054.23
2018-12-04T14:12:56.749Z,99055.91
2018-12-04T14:15:25.597Z,99057.57
2018-12-04T14:17:53.957Z,99061.81
2018-12-04T14:20:22.504Z,99062.20
2018-12-04T14:22:51.067Z,99069.96
2018-12-04T14:25:19.441Z,99072.06
2018-12-04T14:27:49.193Z,99075.47
2018-12-04T14:30:17.985Z,99078.45
2018-12-04T14:32:46.664Z,99081.92
2018-12-04T14:35:15.056Z,99084.55
2018-12-04T14:37:43.495Z,99089.67
2018-12-04T14:40:11.879Z,99093.53
2018-12-04T14:42:40.662Z,99092.23
2018-12-04T14:45:09.237Z,99089.98
2018-12-04T14:47:39.014Z,99088.59
2018-12-04T14:50:09.278Z,99095.08
2018-12-04T14:52:37.847Z,99101.11
2018-12-04T14:55:07.391Z,99105.69
2018-12-04T14:57:35.833Z,99106.77
2018-12-04T15:00:06.367Z,99105.78
2018-12-04T15:02:35.253Z,99108.75
2018-12-04T15:05:03.901Z,99110.39
2018-12-04T15:07:32.389Z,99124.63
2018-12-04T15:10:00.948Z,99122.41
2018-12-04T15:12:29.366Z,99117.64
2018-12-04T15:14:57.730Z,99118.52
2018-12-04T15:17:26.169Z,99134.92
2018-12-04T15:19:54.812Z,99132.70
2018-12-04T15:22:23.306Z,99137.44
2018-12-04T15:24:51.961Z,99145.10
2018-12-04T15:27:20.486Z,99151.59
2018-12-04T15:29:48.888Z,99151.09
2018-12-04T15:32:17.262Z,99158.83
2018-12-04T15:34:45.715Z,99161.59
2018-12-04T15:37:14.385Z,99165.36
2018-12-04T15:39:42.988Z,99164.73
2018-12-04T15:42:11.750Z,99163.77
2018-12-04T15:44:40.592Z,99169.71
2018-12-04T15:47:09.117Z,99172.68
2018-12-04T15:49:37.651Z,99174.72
2018-12-04T15:52:06.140Z,99174.69
2018-12-04T15:54:34.774Z,99178.95
2018-12-04T15:57:03.256Z,99178.48
2018-12-04T15:59:31.647Z,99186.17
2018-12-04T16:02:00.033Z,99184.84
2018-12-04T16:04:28.461Z,99196.55
2018-12-04T16:06:56.827Z,99193.58
2018-12-04T16:09:25.221Z,99201.86
2018-12-04T16:11:53.662Z,99203.61
2018-12-04T16:14:22.057Z,99208.84
2018-12-04T16:16:50.506Z,99209.22
2018-12-04T16:19:19.071Z,99206.63
2018-12-04T16:21:47.450Z,99208.75
2018-12-04T16:24:15.832Z,99210.52
2018-12-04T16:26:44.346Z,99217.41
2018-12-04T16:29:12.852Z,99215.23
2018-12-04T16:31:41.239Z,99219.55
2018-12-04T16:34:09.731Z,99219.59
2018-12-04T16:36:38.133Z,99224.81
2018-12-04T16:39:08.621Z,99230.83
2018-12-04T16:41:37.043Z,99232.59
2018-12-04T16:44:05.592Z,99247.36
2018-12-04T16:46:34.687Z,99245.64
2018-12-04T16:49:09.335Z,99251.75
2018-12-04T16:51:37.713Z,99261.75
2018-12-04T16:54:06.074Z,99269.98
2018-12-04T16:56:34.680Z,99277.72
2018-12-04T16:59:03.080Z,99277.21
2018-12-04T17:01:31.648Z,99278.42
2018-12-04T17:04:00.081Z,99291.70
2018-12-04T17:06:28.495Z,99300.22
2018-12-04T17:08:56.886Z,99304.84
2018-12-04T17:11:25.285Z,99322.53
2018-12-04T17:13:53.634Z,99330.63
2018-12-04T17:16:22.017Z,99337.42
2018-12-04T17:18:50.568Z,99350.34
2018-12-04T17:21:18.934Z,99339.45
2018-12-04T17:23:47.415Z,99364.34
2018-12-04T17:26:15.949Z,99368.55
2018-12-04T17:28:44.341Z,99382.59
2018-12-04T17:31:13.029Z,99397.20
2018-12-04T17:33:41.457Z,99387.52
2018-12-04T17:36:09.836Z,99394.78
2018-12-04T17:38:38.221Z,99406.23
2018-12-04T17:41:06.613Z,99413.27
2018-12-04T17:43:35.317Z,99416.89
2018-12-04T17:46:03.695Z,99425.38
2018-12-04T17:48:32.301Z,99427.75
2018-12-04T17:51:00.701Z,99440.02
2018-12-04T17:53:29.220Z,99444.50
2018-12-04T17:55:57.625Z,99455.41
2018-12-04T17:58:26.174Z,99473.77
2018-12-04T18:00:54.584Z,99472.19
2018-12-04T18:03:29.381Z,99500.53
2018-12-04T18:05:57.948Z,99500.33
2018-12-04T18:08:27.417Z,99504.98
2018-12-04T18:10:55.813Z,99517.73
2018-12-04T18:13:24.298Z,99514.44
2018-12-04T18:15:52.669Z,99519.38
2018-12-04T18:18:21.113Z,99528.66
2018-12-04T18:20:49.543Z,99533.23
2018-12-04T18:23:17.965Z,99539.16
2018-12-04T18:25:46.428Z,99547.09
2018-12-04T18:28:14.856Z,99546.37
2018-12-04T18:30:43.230Z,99548.07
2018-12-04T18:33:11.653Z,99558.88
2018-12-04T18:35:40.028Z,99563.17
2018-12-04T18:38:08.434Z,99563.45
2018-12-04T18:40:36.889Z,99592.59
2018-12-04T18:43:05.307Z,99587.98
2018-12-04T18:45:34.041Z,99613.22
2018-12-04T18:48:02.607Z,99619.83
2018-12-04T18:50:31.097Z,99626.78
2018-12-04T18:52:59.496Z,99637.53
2018-12-04T18:55:28.018Z,99638.69
2018-12-04T18:57:56.394Z,99650.23
2018-12-04T19:00:24.926Z,99663.89
2018-12-04T19:02:54.472Z,99666.38
2018-12-04T19:05:22.861Z,99675.61
2018-12-04T19:07:51.291Z,99679.15
2018-12-04T19:10:20.081Z,99692.67
2018-12-04T19:12:48.452Z,99699.08
2018-12-04T19:15:17.047Z,99696.92
2018-12-04T19:17:45.516Z,99704.62
2018-12-04T19:20:20.354Z,99705.85
2018-12-04T19:22:48.823Z,99710.81
2018-12-04T19:25:17.350Z,99711.09
2018-12-04T19:27:45.732Z,99722.18
2018-12-04T19:30:15.500Z,99732.72
2018-12-04T19:32:43.880Z,99730.82
2018-12-04T19:35:13.542Z,99727.49
2018-12-04T19:37:41.981Z,99740.95
2018-12-04T19:40:11.883Z,99742.45
2018-12-04T19:42:44.013Z,99756.33
2018-12-04T19:45:13.140Z,99768.51
2018-12-04T19:47:41.636Z,99770.41
2018-12-04T19:50:10.733Z,99776.95
2018-12-04T19:52:39.301Z,99789.60
2018-12-04T19:55:08.091Z,99802.19
2018-12-04T19:57:36.599Z,99811.72
2018-12-04T20:00:06.818Z,99841.59
2018-12-04T20:02:35.498Z,99817.91
2018-12-04T20:05:04.065Z,99836.48
2018-12-04T20:07:32.461Z,99732.49
2018-12-04T20:10:00.879Z,99836.08
2018-12-04T20:12:29.313Z,99853.91
2018-12-04T20:14:57.685Z,99853.77
2018-12-04T20:17:26.069Z,99836.20
2018-12-04T20:19:54.507Z,99861.59
2018-12-04T20:22:22.912Z,99879.70
2018-12-04T20:24:51.401Z,99888.41
2018-12-04T20:27:20.153Z,99891.06
2018-12-04T20:29:48.700Z,99906.17
2018-12-04T20:32:17.112Z,99906.25
2018-12-04T20:34:45.540Z,99912.71
2018-12-04T20:37:13.940Z,99914.96
2018-12-04T20:39:42.331Z,99917.07
2018-12-04T20:42:10.767Z,99925.23
2018-12-04T20:44:39.278Z,99917.88
2018-12-04T20:47:07.638Z,99935.58
2018-12-04T20:49:36.301Z,99950.20
2018-12-04T20:52:04.793Z,99947.96
2018-12-04T20:54:33.616Z,99954.35
2018-12-04T20:57:02.230Z,99952.58
2018-12-04T20:59:30.694Z,99974.23
2018-12-04T21:01:59.088Z,99967.69
2018-12-04T21:04:27.640Z,99965.84
2018-12-04T21:06:56.016Z,99973.27
2018-12-04T21:09:24.525Z,99982.25
2018-12-04T21:11:52.938Z,99984.57
2018-12-04T21:14:21.448Z,99995.32
2018-12-04T21:16:49.992Z,99998.87
2018-12-04T21:19:18.434Z,100007.17
2018-12-04T21:21:46.940Z,100020.66
2018-12-04T21:24:15.493Z,100032.78
2018-12-04T21:26:43.941Z,100033.81
2018-12-04T21:29:17.981Z,100041.31
2018-12-04T21:31:51.762Z,100043.64
2018-12-04T21:34:25.739Z,100052.84
2018-12-04T21:36:59.396Z,100058.23
2018-12-04T21:39:32.855Z,100068.32
2018-12-04T21:42:05.429Z,100076.70
2018-12-04T21:44:39.053Z,100089.80
2018-12-04T21:47:12.605Z,100096.89
2018-12-04T21:49:40.969Z,100091.89
2018-12-04T21:52:09.338Z,100105.53
2018-12-04T21:54:37.806Z,100110.59
2018-12-04T21:57:06.318Z,100131.86
2018-12-04T21:59:34.704Z,100129.08
2018-12-04T22:02:03.146Z,100137.54
2018-12-04T22:04:31.784Z,100144.56
2018-12-04T22:07:00.159Z,100143.08
2018-12-04T22:09:28.585Z,100159.72
2018-12-04T22:11:56.970Z,100151.13
2018-12-04T22:14:25.524Z,100170.48
2018-12-04T22:16:53.971Z,100169.59
2018-12-04T22:19:22.379Z,100164.75
2018-12-04T22:21:51.208Z,100162.91
2018-12-04T22:24:19.626Z,100167.20
2018-12-04T22:26:48.017Z,100169.30
2018-12-04T22:29:16.421Z,100195.61
2018-12-04T22:31:44.976Z,100186.95
2018-12-04T22:34:13.373Z,100194.24
2018-12-04T22:36:41.758Z,100187.70
2018-12-04T22:39:10.748Z,100200.56
2018-12-04T22:41:39.152Z,100210.37
2018-12-04T22:44:07.739Z,100221.46
2018-12-04T22:46:36.152Z,100230.70
2018-12-04T22:49:05.032Z,100218.09
2018-12-04T22:51:33.439Z,100228.38
2018-12-04T22:54:01.845Z,100229.52
2018-12-04T22:56:30.243Z,100221.20
2018-12-04T22:58:58.616Z,100225.73
2018-12-04T23:01:43.893Z,100226.48
2018-12-04T23:04:12.289Z,100237.97
2018-12-04T23:06:41.013Z,100244.80
2018-12-04T23:09:11.013Z,100251.04
2018-12-04T23:11:40.066Z,100247.73
2018-12-04T23:14:08.630Z,100268.20
2018-12-04T23:16:37.078Z,100256.48
2018-12-04T23:19:05.614Z,100243.34
2018-12-04T23:21:34.010Z,100279.38
2018-12-04T23:24:02.467Z,100272.27
2018-12-04T23:26:30.924Z,100277.61
2018-12-04T23:28:59.304Z,100290.38
2018-12-04T23:31:27.726Z,100284.56
2018-12-04T23:33:56.499Z,100292.08
2018-12-04T23:36:24.888Z,100302.59
2018-12-04T23:38:53.305Z,100296.77
2018-12-04T23:41:21.674Z,100300.08
2018-12-04T23:43:50.492Z,100317.78
2018-12-04T23:46:19.373Z,100313.33
2018-12-04T23:48:47.990Z,100325.77
2018-12-04T23:51:16.373Z,100339.98
2018-12-04T23:53:44.800Z,100328.67
2018-12-04T23:56:13.208Z,100334.17
2018-12-04T23:58:41.744Z,100342.65
